sensor_id;sensor_type;location;lat;lon;timestamp;temperature;humidity
56103;DHT22;41970;48.774;9.280;2023-05-07T00:00:03;15.00;99.90
56103;DHT22;41970;48.774;9.280;2023-05-07T00:02:32;15.00;99.90
56103;DHT22;41970;48.774;9.280;2023-05-07T00:04:58;15.10;99.90
56103;DHT22;41970;48.774;9.280;2023-05-07T00:07:23;15.10;99.90
56103;DHT22;41970;48.774;9.280;2023-05-07T00:09:50;15.20;99.90
56103;DHT22;41970;48.774;9.280;2023-05-07T00:12:16;15.20;99.90
56103;DHT22;41970;48.774;9.280;2023-05-07T00:14:41;15.20;99.90
56103;DHT22;41970;48.774;9.280;2023-05-07T00:17:07;15.20;99.90
56103;DHT22;41970;48.774;9.280;2023-05-07T00:19:33;15.40;99.90
56103;DHT22;41970;48.774;9.280;2023-05-07T00:21:58;15.40;99.90
56103;DHT22;41970;48.774;9.280;2023-05-07T00:24:25;15.40;99.90
56103;DHT22;41970;48.774;9.280;2023-05-07T00:26:50;15.30;99.90
56103;DHT22;41970;48.774;9.280;2023-05-07T00:29:16;15.20;99.90
56103;DHT22;41970;48.774;9.280;2023-05-07T00:31:42;15.20;99.90
56103;DHT22;41970;48.774;9.280;2023-05-07T00:34:08;15.20;99.90
56103;DHT22;41970;48.774;9.280;2023-05-07T00:36:33;15.00;99.90
56103;DHT22;41970;48.774;9.280;2023-05-07T00:39:00;15.00;99.90
56103;DHT22;41970;48.774;9.280;2023-05-07T00:41:27;15.10;99.90
56103;DHT22;41970;48.774;9.280;2023-05-07T00:43:53;15.10;99.90
56103;DHT22;41970;48.774;9.280;2023-05-07T00:46:20;15.10;99.90
56103;DHT22;41970;48.774;9.280;2023-05-07T00:48:47;15.00;99.90
56103;DHT22;41970;48.774;9.280;2023-05-07T00:51:13;15.10;99.90
56103;DHT22;41970;48.774;9.280;2023-05-07T00:53:39;15.20;99.90
56103;DHT22;41970;48.774;9.280;2023-05-07T00:56:06;15.20;99.90
56103;DHT22;41970;48.774;9.280;2023-05-07T00:58:33;15.10;99.90
56103;DHT22;41970;48.774;9.280;2023-05-07T01:00:59;15.00;99.90
56103;DHT22;41970;48.774;9.280;2023-05-07T01:03:25;14.90;99.90
56103;DHT22;41970;48.774;9.280;2023-05-07T01:05:52;14.90;99.90
56103;DHT22;41970;48.774;9.280;2023-05-07T01:08:20;14.90;99.90
56103;DHT22;41970;48.774;9.280;2023-05-07T01:10:47;14.90;99.90
56103;DHT22;41970;48.774;9.280;2023-05-07T01:13:13;14.90;99.90
56103;DHT22;41970;48.774;9.280;2023-05-07T01:15:39;14.80;99.90
56103;DHT22;41970;48.774;9.280;2023-05-07T01:18:06;14.70;99.90
56103;DHT22;41970;48.774;9.280;2023-05-07T01:20:32;14.70;99.90
56103;DHT22;41970;48.774;9.280;2023-05-07T01:23:00;14.70;99.90
56103;DHT22;41970;48.774;9.280;2023-05-07T01:25:26;14.70;99.90
56103;DHT22;41970;48.774;9.280;2023-05-07T01:27:52;14.70;99.90
56103;DHT22;41970;48.774;9.280;2023-05-07T01:30:19;14.70;99.90
56103;DHT22;41970;48.774;9.280;2023-05-07T01:33:06;14.60;99.90
56103;DHT22;41970;48.774;9.280;2023-05-07T01:35:42;14.60;99.90
56103;DHT22;41970;48.774;9.280;2023-05-07T01:38:09;14.50;99.90
56103;DHT22;41970;48.774;9.280;2023-05-07T01:40:35;14.40;99.90
56103;DHT22;41970;48.774;9.280;2023-05-07T01:43:02;14.40;99.90
56103;DHT22;41970;48.774;9.280;2023-05-07T01:45:30;14.50;99.90
56103;DHT22;41970;48.774;9.280;2023-05-07T01:47:56;14.60;99.90
56103;DHT22;41970;48.774;9.280;2023-05-07T01:50:23;14.50;99.90
56103;DHT22;41970;48.774;9.280;2023-05-07T01:52:50;14.40;99.90
56103;DHT22;41970;48.774;9.280;2023-05-07T01:55:16;14.50;99.90
56103;DHT22;41970;48.774;9.280;2023-05-07T01:57:42;14.50;99.90
56103;DHT22;41970;48.774;9.280;2023-05-07T02:00:08;14.60;99.90
56103;DHT22;41970;48.774;9.280;2023-05-07T02:02:35;14.50;99.90
56103;DHT22;41970;48.774;9.280;2023-05-07T02:05:00;14.50;99.90
56103;DHT22;41970;48.774;9.280;2023-05-07T02:07:27;14.40;99.90
56103;DHT22;41970;48.774;9.280;2023-05-07T02:09:53;14.30;99.90
56103;DHT22;41970;48.774;9.280;2023-05-07T02:12:21;14.30;99.90
56103;DHT22;41970;48.774;9.280;2023-05-07T02:14:47;14.30;99.90
56103;DHT22;41970;48.774;9.280;2023-05-07T02:17:12;14.40;99.90
56103;DHT22;41970;48.774;9.280;2023-05-07T02:19:38;14.40;99.90
56103;DHT22;41970;48.774;9.280;2023-05-07T02:22:04;14.30;99.90
56103;DHT22;41970;48.774;9.280;2023-05-07T02:24:30;14.20;99.90
56103;DHT22;41970;48.774;9.280;2023-05-07T02:26:55;14.10;99.90
56103;DHT22;41970;48.774;9.280;2023-05-07T02:29:21;14.00;99.90
56103;DHT22;41970;48.774;9.280;2023-05-07T02:31:47;14.00;99.90
56103;DHT22;41970;48.774;9.280;2023-05-07T02:34:17;14.00;99.90
56103;DHT22;41970;48.774;9.280;2023-05-07T02:36:42;14.10;99.90
56103;DHT22;41970;48.774;9.280;2023-05-07T02:39:08;14.20;99.90
56103;DHT22;41970;48.774;9.280;2023-05-07T02:41:34;14.20;99.90
56103;DHT22;41970;48.774;9.280;2023-05-07T02:44:00;14.10;99.90
56103;DHT22;41970;48.774;9.280;2023-05-07T02:46:25;14.00;99.90
56103;DHT22;41970;48.774;9.280;2023-05-07T02:48:51;14.00;99.90
56103;DHT22;41970;48.774;9.280;2023-05-07T02:51:21;14.00;99.90
56103;DHT22;41970;48.774;9.280;2023-05-07T02:53:47;14.00;99.90
56103;DHT22;41970;48.774;9.280;2023-05-07T02:56:13;14.00;99.90
56103;DHT22;41970;48.774;9.280;2023-05-07T02:58:39;13.90;99.90
56103;DHT22;41970;48.774;9.280;2023-05-07T03:01:08;13.90;99.90
56103;DHT22;41970;48.774;9.280;2023-05-07T03:03:34;13.80;99.90
56103;DHT22;41970;48.774;9.280;2023-05-07T03:06:01;13.80;99.90
56103;DHT22;41970;48.774;9.280;2023-05-07T03:08:27;13.70;99.90
56103;DHT22;41970;48.774;9.280;2023-05-07T03:10:52;13.50;99.90
56103;DHT22;41970;48.774;9.280;2023-05-07T03:13:18;13.30;99.90
56103;DHT22;41970;48.774;9.280;2023-05-07T03:15:44;13.20;99.90
56103;DHT22;41970;48.774;9.280;2023-05-07T03:18:10;13.20;99.90
56103;DHT22;41970;48.774;9.280;2023-05-07T03:20:35;13.20;99.90
56103;DHT22;41970;48.774;9.280;2023-05-07T03:23:02;13.40;99.90
56103;DHT22;41970;48.774;9.280;2023-05-07T03:25:28;13.40;99.90
56103;DHT22;41970;48.774;9.280;2023-05-07T03:27:56;13.40;99.90
56103;DHT22;41970;48.774;9.280;2023-05-07T03:30:21;13.40;99.90
56103;DHT22;41970;48.774;9.280;2023-05-07T03:32:47;13.40;99.90
56103;DHT22;41970;48.774;9.280;2023-05-07T03:35:13;13.40;99.90
56103;DHT22;41970;48.774;9.280;2023-05-07T03:37:39;13.30;99.90
56103;DHT22;41970;48.774;9.280;2023-05-07T03:40:06;13.30;99.90
56103;DHT22;41970;48.774;9.280;2023-05-07T03:42:32;13.30;99.90
56103;DHT22;41970;48.774;9.280;2023-05-07T03:44:57;13.30;99.90
56103;DHT22;41970;48.774;9.280;2023-05-07T03:47:23;13.40;99.90
56103;DHT22;41970;48.774;9.280;2023-05-07T03:49:49;13.20;99.90
56103;DHT22;41970;48.774;9.280;2023-05-07T03:52:16;13.10;99.90
56103;DHT22;41970;48.774;9.280;2023-05-07T03:54:41;12.90;99.90
56103;DHT22;41970;48.774;9.280;2023-05-07T03:57:07;12.90;99.90
56103;DHT22;41970;48.774;9.280;2023-05-07T03:59:33;13.00;99.90
56103;DHT22;41970;48.774;9.280;2023-05-07T04:01:58;13.10;99.90
56103;DHT22;41970;48.774;9.280;2023-05-07T04:04:24;13.10;99.90
56103;DHT22;41970;48.774;9.280;2023-05-07T04:06:50;13.10;99.90
56103;DHT22;41970;48.774;9.280;2023-05-07T04:09:16;13.00;99.90
56103;DHT22;41970;48.774;9.280;2023-05-07T04:11:42;13.00;99.90
56103;DHT22;41970;48.774;9.280;2023-05-07T04:14:08;12.90;99.90
56103;DHT22;41970;48.774;9.280;2023-05-07T04:16:34;12.90;99.90
56103;DHT22;41970;48.774;9.280;2023-05-07T04:19:00;13.00;99.90
56103;DHT22;41970;48.774;9.280;2023-05-07T04:21:26;13.10;99.90
56103;DHT22;41970;48.774;9.280;2023-05-07T04:23:52;13.10;99.90
56103;DHT22;41970;48.774;9.280;2023-05-07T04:26:18;13.10;99.90
56103;DHT22;41970;48.774;9.280;2023-05-07T04:28:46;12.90;99.90
56103;DHT22;41970;48.774;9.280;2023-05-07T04:31:12;12.90;99.90
56103;DHT22;41970;48.774;9.280;2023-05-07T04:33:38;12.80;99.90
56103;DHT22;41970;48.774;9.280;2023-05-07T04:36:04;12.70;99.90
56103;DHT22;41970;48.774;9.280;2023-05-07T04:38:30;12.80;99.90
56103;DHT22;41970;48.774;9.280;2023-05-07T04:40:57;12.90;99.90
56103;DHT22;41970;48.774;9.280;2023-05-07T04:43:23;12.90;99.90
56103;DHT22;41970;48.774;9.280;2023-05-07T04:45:52;12.90;99.90
56103;DHT22;41970;48.774;9.280;2023-05-07T04:48:17;12.90;99.90
56103;DHT22;41970;48.774;9.280;2023-05-07T04:50:49;12.90;99.90
56103;DHT22;41970;48.774;9.280;2023-05-07T04:53:15;12.90;99.90
56103;DHT22;41970;48.774;9.280;2023-05-07T04:55:41;12.90;99.90
56103;DHT22;41970;48.774;9.280;2023-05-07T04:58:07;13.10;99.90
56103;DHT22;41970;48.774;9.280;2023-05-07T05:00:33;13.10;99.90
56103;DHT22;41970;48.774;9.280;2023-05-07T05:02:59;13.10;99.90
56103;DHT22;41970;48.774;9.280;2023-05-07T05:05:25;13.20;99.90
56103;DHT22;41970;48.774;9.280;2023-05-07T05:07:50;13.20;99.90
56103;DHT22;41970;48.774;9.280;2023-05-07T05:10:17;13.20;99.90
56103;DHT22;41970;48.774;9.280;2023-05-07T05:12:43;13.30;99.90
56103;DHT22;41970;48.774;9.280;2023-05-07T05:15:11;13.30;99.90
56103;DHT22;41970;48.774;9.280;2023-05-07T05:17:38;13.30;99.90
56103;DHT22;41970;48.774;9.280;2023-05-07T05:20:04;13.20;99.90
56103;DHT22;41970;48.774;9.280;2023-05-07T05:22:31;13.40;99.90
56103;DHT22;41970;48.774;9.280;2023-05-07T05:24:57;13.50;99.90
56103;DHT22;41970;48.774;9.280;2023-05-07T05:27:23;13.40;99.90
56103;DHT22;41970;48.774;9.280;2023-05-07T05:29:49;13.40;99.90
56103;DHT22;41970;48.774;9.280;2023-05-07T05:32:14;13.40;99.90
56103;DHT22;41970;48.774;9.280;2023-05-07T05:34:41;13.60;99.90
56103;DHT22;41970;48.774;9.280;2023-05-07T05:37:06;13.70;99.90
56103;DHT22;41970;48.774;9.280;2023-05-07T05:39:32;13.80;99.90
56103;DHT22;41970;48.774;9.280;2023-05-07T05:41:58;14.00;99.90
56103;DHT22;41970;48.774;9.280;2023-05-07T05:44:24;14.00;99.90
56103;DHT22;41970;48.774;9.280;2023-05-07T05:46:50;14.10;99.90
56103;DHT22;41970;48.774;9.280;2023-05-07T05:49:16;14.10;99.90
56103;DHT22;41970;48.774;9.280;2023-05-07T05:51:42;14.00;99.90
56103;DHT22;41970;48.774;9.280;2023-05-07T05:54:08;14.10;99.90
56103;DHT22;41970;48.774;9.280;2023-05-07T05:56:34;14.20;99.90
56103;DHT22;41970;48.774;9.280;2023-05-07T05:58:59;14.40;99.90
56103;DHT22;41970;48.774;9.280;2023-05-07T06:01:25;14.40;99.90
56103;DHT22;41970;48.774;9.280;2023-05-07T06:03:51;14.60;99.90
56103;DHT22;41970;48.774;9.280;2023-05-07T06:06:17;14.70;99.90
56103;DHT22;41970;48.774;9.280;2023-05-07T06:08:43;14.80;99.90
56103;DHT22;41970;48.774;9.280;2023-05-07T06:11:08;14.90;99.90
56103;DHT22;41970;48.774;9.280;2023-05-07T06:13:34;15.00;99.90
56103;DHT22;41970;48.774;9.280;2023-05-07T06:16:00;15.10;99.90
56103;DHT22;41970;48.774;9.280;2023-05-07T06:18:25;15.20;99.90
56103;DHT22;41970;48.774;9.280;2023-05-07T06:20:52;15.30;99.90
56103;DHT22;41970;48.774;9.280;2023-05-07T06:23:18;15.30;99.90
56103;DHT22;41970;48.774;9.280;2023-05-07T06:25:50;15.40;99.90
56103;DHT22;41970;48.774;9.280;2023-05-07T06:28:18;15.50;99.90
56103;DHT22;41970;48.774;9.280;2023-05-07T06:30:44;15.70;99.90
56103;DHT22;41970;48.774;9.280;2023-05-07T06:33:09;15.70;99.90
56103;DHT22;41970;48.774;9.280;2023-05-07T06:35:35;15.80;99.90
56103;DHT22;41970;48.774;9.280;2023-05-07T06:38:01;15.80;99.90
56103;DHT22;41970;48.774;9.280;2023-05-07T06:40:27;15.90;99.90
56103;DHT22;41970;48.774;9.280;2023-05-07T06:42:53;15.90;99.90
56103;DHT22;41970;48.774;9.280;2023-05-07T06:45:19;15.80;99.90
56103;DHT22;41970;48.774;9.280;2023-05-07T06:47:45;15.80;99.90
56103;DHT22;41970;48.774;9.280;2023-05-07T06:50:11;16.00;99.90
56103;DHT22;41970;48.774;9.280;2023-05-07T06:52:37;16.20;99.90
56103;DHT22;41970;48.774;9.280;2023-05-07T06:55:03;16.40;99.90
56103;DHT22;41970;48.774;9.280;2023-05-07T06:57:29;16.60;99.90
56103;DHT22;41970;48.774;9.280;2023-05-07T06:59:55;16.80;99.90
56103;DHT22;41970;48.774;9.280;2023-05-07T07:02:21;17.00;99.90
56103;DHT22;41970;48.774;9.280;2023-05-07T07:04:47;17.20;99.90
56103;DHT22;41970;48.774;9.280;2023-05-07T07:07:12;17.60;99.90
56103;DHT22;41970;48.774;9.280;2023-05-07T07:09:38;18.10;99.90
56103;DHT22;41970;48.774;9.280;2023-05-07T07:12:04;18.60;99.90
56103;DHT22;41970;48.774;9.280;2023-05-07T07:14:30;18.80;99.90
56103;DHT22;41970;48.774;9.280;2023-05-07T07:16:56;18.90;99.90
56103;DHT22;41970;48.774;9.280;2023-05-07T07:19:21;19.30;99.90
56103;DHT22;41970;48.774;9.280;2023-05-07T07:21:47;19.60;99.90
56103;DHT22;41970;48.774;9.280;2023-05-07T07:24:14;20.20;99.90
56103;DHT22;41970;48.774;9.280;2023-05-07T07:26:45;20.60;99.90
56103;DHT22;41970;48.774;9.280;2023-05-07T07:29:10;20.60;99.90
56103;DHT22;41970;48.774;9.280;2023-05-07T07:31:36;20.80;99.90
56103;DHT22;41970;48.774;9.280;2023-05-07T07:34:02;21.00;99.90
56103;DHT22;41970;48.774;9.280;2023-05-07T07:36:27;21.40;99.90
56103;DHT22;41970;48.774;9.280;2023-05-07T07:38:54;21.60;99.90
56103;DHT22;41970;48.774;9.280;2023-05-07T07:41:21;22.00;99.90
56103;DHT22;41970;48.774;9.280;2023-05-07T07:43:46;22.10;99.90
56103;DHT22;41970;48.774;9.280;2023-05-07T07:46:12;22.50;99.90
56103;DHT22;41970;48.774;9.280;2023-05-07T07:48:38;22.80;99.90
56103;DHT22;41970;48.774;9.280;2023-05-07T07:51:04;22.90;99.90
56103;DHT22;41970;48.774;9.280;2023-05-07T07:53:30;23.00;99.90
56103;DHT22;41970;48.774;9.280;2023-05-07T07:55:56;23.20;99.70
56103;DHT22;41970;48.774;9.280;2023-05-07T07:58:21;23.40;99.60
56103;DHT22;41970;48.774;9.280;2023-05-07T08:00:48;23.90;98.70
56103;DHT22;41970;48.774;9.280;2023-05-07T08:03:14;24.00;98.50
56103;DHT22;41970;48.774;9.280;2023-05-07T08:05:42;24.20;97.80
56103;DHT22;41970;48.774;9.280;2023-05-07T08:08:08;24.20;97.70
56103;DHT22;41970;48.774;9.280;2023-05-07T08:10:33;24.30;97.50
56103;DHT22;41970;48.774;9.280;2023-05-07T08:13:00;24.30;97.30
56103;DHT22;41970;48.774;9.280;2023-05-07T08:15:27;24.30;97.10
56103;DHT22;41970;48.774;9.280;2023-05-07T08:17:52;24.00;96.40
56103;DHT22;41970;48.774;9.280;2023-05-07T08:20:18;23.90;96.70
56103;DHT22;41970;48.774;9.280;2023-05-07T08:22:44;23.50;97.60
56103;DHT22;41970;48.774;9.280;2023-05-07T08:25:10;23.70;97.50
56103;DHT22;41970;48.774;9.280;2023-05-07T08:27:35;23.70;96.90
56103;DHT22;41970;48.774;9.280;2023-05-07T08:30:02;23.60;97.50
56103;DHT22;41970;48.774;9.280;2023-05-07T08:32:27;23.70;97.00
56103;DHT22;41970;48.774;9.280;2023-05-07T08:34:53;23.50;96.90
56103;DHT22;41970;48.774;9.280;2023-05-07T08:37:19;23.60;98.00
56103;DHT22;41970;48.774;9.280;2023-05-07T08:39:46;24.20;97.70
56103;DHT22;41970;48.774;9.280;2023-05-07T08:42:12;24.80;96.90
56103;DHT22;41970;48.774;9.280;2023-05-07T08:44:41;24.50;96.30
56103;DHT22;41970;48.774;9.280;2023-05-07T08:47:11;24.30;96.50
56103;DHT22;41970;48.774;9.280;2023-05-07T08:49:37;23.70;96.20
56103;DHT22;41970;48.774;9.280;2023-05-07T08:52:02;23.50;96.60
56103;DHT22;41970;48.774;9.280;2023-05-07T08:54:29;23.40;96.80
56103;DHT22;41970;48.774;9.280;2023-05-07T08:56:56;23.40;96.50
56103;DHT22;41970;48.774;9.280;2023-05-07T08:59:21;23.90;96.80
56103;DHT22;41970;48.774;9.280;2023-05-07T09:01:47;24.20;96.10
56103;DHT22;41970;48.774;9.280;2023-05-07T09:04:13;24.10;96.00
56103;DHT22;41970;48.774;9.280;2023-05-07T09:06:39;23.80;95.30
56103;DHT22;41970;48.774;9.280;2023-05-07T09:09:07;23.80;96.00
56103;DHT22;41970;48.774;9.280;2023-05-07T09:11:33;24.10;96.00
56103;DHT22;41970;48.774;9.280;2023-05-07T09:13:59;24.30;95.50
56103;DHT22;41970;48.774;9.280;2023-05-07T09:16:28;24.00;95.00
56103;DHT22;41970;48.774;9.280;2023-05-07T09:18:54;23.90;95.50
56103;DHT22;41970;48.774;9.280;2023-05-07T09:21:20;23.90;95.70
56103;DHT22;41970;48.774;9.280;2023-05-07T09:23:50;24.10;95.40
56103;DHT22;41970;48.774;9.280;2023-05-07T09:26:17;24.20;95.20
56103;DHT22;41970;48.774;9.280;2023-05-07T09:28:44;24.00;95.60
56103;DHT22;41970;48.774;9.280;2023-05-07T09:31:12;23.80;96.30
56103;DHT22;41970;48.774;9.280;2023-05-07T09:33:38;24.00;95.80
56103;DHT22;41970;48.774;9.280;2023-05-07T09:36:06;24.10;95.70
56103;DHT22;41970;48.774;9.280;2023-05-07T09:38:33;24.50;95.60
56103;DHT22;41970;48.774;9.280;2023-05-07T09:41:07;24.70;95.50
56103;DHT22;41970;48.774;9.280;2023-05-07T09:43:38;24.70;94.80
56103;DHT22;41970;48.774;9.280;2023-05-07T09:46:12;24.40;94.80
56103;DHT22;41970;48.774;9.280;2023-05-07T09:48:40;24.50;94.40
56103;DHT22;41970;48.774;9.280;2023-05-07T09:53:47;25.00;94.30
56103;DHT22;41970;48.774;9.280;2023-05-07T09:56:14;24.90;94.20
56103;DHT22;41970;48.774;9.280;2023-05-07T09:58:41;25.10;94.10
56103;DHT22;41970;48.774;9.280;2023-05-07T10:01:07;25.30;93.30
56103;DHT22;41970;48.774;9.280;2023-05-07T10:03:36;25.40;94.20
56103;DHT22;41970;48.774;9.280;2023-05-07T10:06:03;25.40;93.20
56103;DHT22;41970;48.774;9.280;2023-05-07T10:08:30;25.20;93.90
56103;DHT22;41970;48.774;9.280;2023-05-07T10:10:56;24.90;94.00
56103;DHT22;41970;48.774;9.280;2023-05-07T10:13:22;24.80;93.70
56103;DHT22;41970;48.774;9.280;2023-05-07T10:15:48;24.90;93.50
56103;DHT22;41970;48.774;9.280;2023-05-07T10:18:15;24.90;94.00
56103;DHT22;41970;48.774;9.280;2023-05-07T10:20:43;25.00;94.10
56103;DHT22;41970;48.774;9.280;2023-05-07T10:23:15;25.00;93.50
56103;DHT22;41970;48.774;9.280;2023-05-07T10:25:43;24.90;93.90
56103;DHT22;41970;48.774;9.280;2023-05-07T10:28:10;24.70;94.10
56103;DHT22;41970;48.774;9.280;2023-05-07T10:31:05;24.80;93.60
56103;DHT22;41970;48.774;9.280;2023-05-07T10:33:34;24.90;93.50
56103;DHT22;41970;48.774;9.280;2023-05-07T10:36:01;24.40;93.60
56103;DHT22;41970;48.774;9.280;2023-05-07T10:38:30;24.30;92.80
56103;DHT22;41970;48.774;9.280;2023-05-07T10:40:56;24.20;92.70
56103;DHT22;41970;48.774;9.280;2023-05-07T10:43:22;24.00;92.40
56103;DHT22;41970;48.774;9.280;2023-05-07T10:46:10;24.40;92.60
56103;DHT22;41970;48.774;9.280;2023-05-07T10:51:34;24.50;92.50
56103;DHT22;41970;48.774;9.280;2023-05-07T10:56:39;25.00;92.50
56103;DHT22;41970;48.774;9.280;2023-05-07T11:02:02;24.40;92.70
56103;DHT22;41970;48.774;9.280;2023-05-07T11:04:30;24.30;92.60
56103;DHT22;41970;48.774;9.280;2023-05-07T11:12:17;24.70;92.00
56103;DHT22;41970;48.774;9.280;2023-05-07T11:14:44;24.60;91.80
56103;DHT22;41970;48.774;9.280;2023-05-07T11:17:11;24.70;91.80
56103;DHT22;41970;48.774;9.280;2023-05-07T11:19:51;24.50;92.40
56103;DHT22;41970;48.774;9.280;2023-05-07T11:25:06;24.40;92.50
56103;DHT22;41970;48.774;9.280;2023-05-07T11:27:32;24.80;92.90
56103;DHT22;41970;48.774;9.280;2023-05-07T11:29:59;24.90;92.30
56103;DHT22;41970;48.774;9.280;2023-05-07T11:32:27;24.80;92.20
56103;DHT22;41970;48.774;9.280;2023-05-07T11:34:55;24.90;92.40
56103;DHT22;41970;48.774;9.280;2023-05-07T11:37:22;25.00;92.10
56103;DHT22;41970;48.774;9.280;2023-05-07T11:39:49;25.00;92.40
56103;DHT22;41970;48.774;9.280;2023-05-07T11:42:30;25.10;91.90
56103;DHT22;41970;48.774;9.280;2023-05-07T11:44:57;25.20;91.70
56103;DHT22;41970;48.774;9.280;2023-05-07T11:47:22;25.20;91.70
56103;DHT22;41970;48.774;9.280;2023-05-07T11:49:51;25.30;91.80
56103;DHT22;41970;48.774;9.280;2023-05-07T11:52:18;24.90;91.50
56103;DHT22;41970;48.774;9.280;2023-05-07T11:57:16;24.90;91.70
56103;DHT22;41970;48.774;9.280;2023-05-07T11:59:42;24.80;91.80
56103;DHT22;41970;48.774;9.280;2023-05-07T12:02:10;24.80;91.90
56103;DHT22;41970;48.774;9.280;2023-05-07T12:04:37;24.80;92.30
56103;DHT22;41970;48.774;9.280;2023-05-07T12:07:03;24.80;92.30
56103;DHT22;41970;48.774;9.280;2023-05-07T12:09:29;24.70;91.90
56103;DHT22;41970;48.774;9.280;2023-05-07T12:11:55;24.70;91.90
56103;DHT22;41970;48.774;9.280;2023-05-07T12:14:21;24.70;91.70
56103;DHT22;41970;48.774;9.280;2023-05-07T12:16:47;24.70;92.70
56103;DHT22;41970;48.774;9.280;2023-05-07T12:19:13;24.60;94.00
56103;DHT22;41970;48.774;9.280;2023-05-07T12:21:40;24.50;93.80
56103;DHT22;41970;48.774;9.280;2023-05-07T12:24:06;24.40;93.30
56103;DHT22;41970;48.774;9.280;2023-05-07T12:26:40;24.20;93.20
56103;DHT22;41970;48.774;9.280;2023-05-07T12:29:06;24.00;94.50
56103;DHT22;41970;48.774;9.280;2023-05-07T12:31:32;23.90;96.90
56103;DHT22;41970;48.774;9.280;2023-05-07T12:33:58;23.90;96.70
56103;DHT22;41970;48.774;9.280;2023-05-07T12:36:23;23.70;98.20
56103;DHT22;41970;48.774;9.280;2023-05-07T12:38:50;23.80;99.90
56103;DHT22;41970;48.774;9.280;2023-05-07T12:41:16;23.80;99.90
56103;DHT22;41970;48.774;9.280;2023-05-07T12:43:45;23.80;99.90
56103;DHT22;41970;48.774;9.280;2023-05-07T12:46:11;23.40;99.70
56103;DHT22;41970;48.774;9.280;2023-05-07T12:48:45;22.90;98.20
56103;DHT22;41970;48.774;9.280;2023-05-07T12:51:11;22.20;97.60
56103;DHT22;41970;48.774;9.280;2023-05-07T12:53:42;21.70;98.50
56103;DHT22;41970;48.774;9.280;2023-05-07T12:56:08;21.40;99.90
56103;DHT22;41970;48.774;9.280;2023-05-07T12:58:35;21.20;99.90
56103;DHT22;41970;48.774;9.280;2023-05-07T13:01:04;21.00;99.90
56103;DHT22;41970;48.774;9.280;2023-05-07T13:03:33;20.90;99.90
56103;DHT22;41970;48.774;9.280;2023-05-07T13:06:05;20.70;99.90
56103;DHT22;41970;48.774;9.280;2023-05-07T13:08:32;20.30;99.90
56103;DHT22;41970;48.774;9.280;2023-05-07T13:11:00;20.20;99.90
56103;DHT22;41970;48.774;9.280;2023-05-07T13:13:33;20.20;99.90
56103;DHT22;41970;48.774;9.280;2023-05-07T13:16:00;20.00;99.90
56103;DHT22;41970;48.774;9.280;2023-05-07T13:18:29;20.00;99.90
56103;DHT22;41970;48.774;9.280;2023-05-07T13:20:56;19.30;99.90
56103;DHT22;41970;48.774;9.280;2023-05-07T13:23:21;18.50;99.90
56103;DHT22;41970;48.774;9.280;2023-05-07T13:25:48;18.20;99.90
56103;DHT22;41970;48.774;9.280;2023-05-07T13:28:14;18.40;99.90
56103;DHT22;41970;48.774;9.280;2023-05-07T13:30:40;18.50;99.90
56103;DHT22;41970;48.774;9.280;2023-05-07T13:33:09;18.40;99.90
56103;DHT22;41970;48.774;9.280;2023-05-07T13:35:35;18.20;99.90
56103;DHT22;41970;48.774;9.280;2023-05-07T13:38:01;18.20;99.90
56103;DHT22;41970;48.774;9.280;2023-05-07T13:40:27;18.00;99.90
56103;DHT22;41970;48.774;9.280;2023-05-07T13:42:53;17.80;99.90
56103;DHT22;41970;48.774;9.280;2023-05-07T13:45:19;17.60;99.90
56103;DHT22;41970;48.774;9.280;2023-05-07T13:47:46;17.40;99.90
56103;DHT22;41970;48.774;9.280;2023-05-07T13:50:12;17.10;99.90
56103;DHT22;41970;48.774;9.280;2023-05-07T13:52:42;17.10;99.90
56103;DHT22;41970;48.774;9.280;2023-05-07T13:55:11;17.20;99.90
56103;DHT22;41970;48.774;9.280;2023-05-07T13:57:38;17.30;99.90
56103;DHT22;41970;48.774;9.280;2023-05-07T14:00:04;17.50;99.90
56103;DHT22;41970;48.774;9.280;2023-05-07T14:02:31;17.40;99.90
56103;DHT22;41970;48.774;9.280;2023-05-07T14:04:57;17.10;99.90
56103;DHT22;41970;48.774;9.280;2023-05-07T14:07:22;17.10;99.90
56103;DHT22;41970;48.774;9.280;2023-05-07T14:09:48;17.20;99.90
56103;DHT22;41970;48.774;9.280;2023-05-07T14:12:14;17.20;99.90
56103;DHT22;41970;48.774;9.280;2023-05-07T14:14:39;17.40;99.90
56103;DHT22;41970;48.774;9.280;2023-05-07T14:17:05;17.50;99.90
56103;DHT22;41970;48.774;9.280;2023-05-07T14:19:31;17.60;99.90
56103;DHT22;41970;48.774;9.280;2023-05-07T14:21:57;17.70;99.90
56103;DHT22;41970;48.774;9.280;2023-05-07T14:24:24;17.70;99.90
56103;DHT22;41970;48.774;9.280;2023-05-07T14:26:50;17.70;99.90
56103;DHT22;41970;48.774;9.280;2023-05-07T14:29:16;17.70;99.90
56103;DHT22;41970;48.774;9.280;2023-05-07T14:31:47;17.80;99.90
56103;DHT22;41970;48.774;9.280;2023-05-07T14:34:12;17.80;99.90
56103;DHT22;41970;48.774;9.280;2023-05-07T14:36:38;17.60;99.90
56103;DHT22;41970;48.774;9.280;2023-05-07T14:39:04;17.30;99.90
56103;DHT22;41970;48.774;9.280;2023-05-07T14:41:30;17.10;99.90
56103;DHT22;41970;48.774;9.280;2023-05-07T14:43:56;17.10;99.90
56103;DHT22;41970;48.774;9.280;2023-05-07T14:46:24;17.30;99.90
56103;DHT22;41970;48.774;9.280;2023-05-07T14:48:50;17.20;99.90
56103;DHT22;41970;48.774;9.280;2023-05-07T14:51:16;17.20;99.90
56103;DHT22;41970;48.774;9.280;2023-05-07T14:53:42;17.30;99.90
56103;DHT22;41970;48.774;9.280;2023-05-07T14:56:08;17.30;99.90
56103;DHT22;41970;48.774;9.280;2023-05-07T14:58:34;17.40;99.90
56103;DHT22;41970;48.774;9.280;2023-05-07T15:01:03;17.50;99.90
56103;DHT22;41970;48.774;9.280;2023-05-07T15:03:29;17.40;99.90
56103;DHT22;41970;48.774;9.280;2023-05-07T15:05:55;17.20;99.90
56103;DHT22;41970;48.774;9.280;2023-05-07T15:08:21;17.10;99.90
56103;DHT22;41970;48.774;9.280;2023-05-07T15:10:47;17.00;99.90
56103;DHT22;41970;48.774;9.280;2023-05-07T15:13:13;17.00;99.90
56103;DHT22;41970;48.774;9.280;2023-05-07T15:15:39;16.90;99.90
56103;DHT22;41970;48.774;9.280;2023-05-07T15:18:05;16.80;99.90
56103;DHT22;41970;48.774;9.280;2023-05-07T15:20:31;16.70;99.90
56103;DHT22;41970;48.774;9.280;2023-05-07T15:22:57;16.70;99.90
56103;DHT22;41970;48.774;9.280;2023-05-07T15:25:23;16.80;99.90
56103;DHT22;41970;48.774;9.280;2023-05-07T15:27:49;16.80;99.90
56103;DHT22;41970;48.774;9.280;2023-05-07T15:30:15;16.80;99.90
56103;DHT22;41970;48.774;9.280;2023-05-07T15:32:42;16.90;99.90
56103;DHT22;41970;48.774;9.280;2023-05-07T15:35:09;17.10;99.90
56103;DHT22;41970;48.774;9.280;2023-05-07T15:37:35;17.30;99.90
56103;DHT22;41970;48.774;9.280;2023-05-07T15:40:01;17.10;99.90
56103;DHT22;41970;48.774;9.280;2023-05-07T15:42:32;16.90;99.90
56103;DHT22;41970;48.774;9.280;2023-05-07T15:44:58;16.70;99.90
56103;DHT22;41970;48.774;9.280;2023-05-07T15:47:26;16.80;99.90